sensor_id;sensor_type;location;lat;lon;timestamp;P1;P2;P0
43479;PMS5003;29067;35.492;-97.520;2024-03-29T00:00:09;1;1;
43479;PMS5003;29067;35.492;-97.520;2024-03-29T00:02:38;4;4;
43479;PMS5003;29067;35.492;-97.520;2024-03-29T00:05:07;4;3;
43479;PMS5003;29067;35.492;-97.520;2024-03-29T00:07:35;4;4;
43479;PMS5003;29067;35.492;-97.520;2024-03-29T00:10:03;3;3;
43479;PMS5003;29067;35.492;-97.520;2024-03-29T00:12:31;3;3;
43479;PMS5003;29067;35.492;-97.520;2024-03-29T00:14:59;2;2;
43479;PMS5003;29067;35.492;-97.520;2024-03-29T00:17:27;2;2;
43479;PMS5003;29067;35.492;-97.520;2024-03-29T00:19:54;2;2;
43479;PMS5003;29067;35.492;-97.520;2024-03-29T00:22:22;3;2;
43479;PMS5003;29067;35.492;-97.520;2024-03-29T00:24:50;3;3;
43479;PMS5003;29067;35.492;-97.520;2024-03-29T00:27:17;1;1;
43479;PMS5003;29067;35.492;-97.520;2024-03-29T00:29:45;3;2;
43479;PMS5003;29067;35.492;-97.520;2024-03-29T00:32:13;2;1;
43479;PMS5003;29067;35.492;-97.520;2024-03-29T00:34:40;3;3;
43479;PMS5003;29067;35.492;-97.520;2024-03-29T00:37:08;2;2;
43479;PMS5003;29067;35.492;-97.520;2024-03-29T00:39:35;3;3;
43479;PMS5003;29067;35.492;-97.520;2024-03-29T00:42:03;2;2;
43479;PMS5003;29067;35.492;-97.520;2024-03-29T00:44:32;2;2;
43479;PMS5003;29067;35.492;-97.520;2024-03-29T00:47:00;2;2;
43479;PMS5003;29067;35.492;-97.520;2024-03-29T00:49:28;2;2;
43479;PMS5003;29067;35.492;-97.520;2024-03-29T00:51:55;3;3;
43479;PMS5003;29067;35.492;-97.520;2024-03-29T00:54:23;3;3;
43479;PMS5003;29067;35.492;-97.520;2024-03-29T00:56:51;2;2;
43479;PMS5003;29067;35.492;-97.520;2024-03-29T00:59:19;3;3;
43479;PMS5003;29067;35.492;-97.520;2024-03-29T01:01:47;3;3;
43479;PMS5003;29067;35.492;-97.520;2024-03-29T01:04:16;4;3;
43479;PMS5003;29067;35.492;-97.520;2024-03-29T01:06:44;2;2;
43479;PMS5003;29067;35.492;-97.520;2024-03-29T01:09:12;3;2;
43479;PMS5003;29067;35.492;-97.520;2024-03-29T01:11:40;2;2;
43479;PMS5003;29067;35.492;-97.520;2024-03-29T01:14:08;3;3;
43479;PMS5003;29067;35.492;-97.520;2024-03-29T01:16:35;3;3;
43479;PMS5003;29067;35.492;-97.520;2024-03-29T01:19:03;3;3;
43479;PMS5003;29067;35.492;-97.520;2024-03-29T01:21:32;3;3;
43479;PMS5003;29067;35.492;-97.520;2024-03-29T01:24:00;4;4;
43479;PMS5003;29067;35.492;-97.520;2024-03-29T01:26:28;3;3;
43479;PMS5003;29067;35.492;-97.520;2024-03-29T01:28:57;2;2;
43479;PMS5003;29067;35.492;-97.520;2024-03-29T01:31:25;3;3;
43479;PMS5003;29067;35.492;-97.520;2024-03-29T01:33:53;4;4;
43479;PMS5003;29067;35.492;-97.520;2024-03-29T01:36:21;2;2;
43479;PMS5003;29067;35.492;-97.520;2024-03-29T01:38:50;2;2;
43479;PMS5003;29067;35.492;-97.520;2024-03-29T01:41:19;4;3;
43479;PMS5003;29067;35.492;-97.520;2024-03-29T01:43:47;6;6;
43479;PMS5003;29067;35.492;-97.520;2024-03-29T01:46:16;9;9;
43479;PMS5003;29067;35.492;-97.520;2024-03-29T01:48:48;6;5;
43479;PMS5003;29067;35.492;-97.520;2024-03-29T01:51:17;27;27;
43479;PMS5003;29067;35.492;-97.520;2024-03-29T01:53:47;6;6;
43479;PMS5003;29067;35.492;-97.520;2024-03-29T01:56:17;19;18;
43479;PMS5003;29067;35.492;-97.520;2024-03-29T01:58:46;23;23;
43479;PMS5003;29067;35.492;-97.520;2024-03-29T02:01:18;17;17;
43479;PMS5003;29067;35.492;-97.520;2024-03-29T02:03:49;4;4;
43479;PMS5003;29067;35.492;-97.520;2024-03-29T02:06:19;3;3;
43479;PMS5003;29067;35.492;-97.520;2024-03-29T02:08:49;4;4;
43479;PMS5003;29067;35.492;-97.520;2024-03-29T02:11:19;3;3;
43479;PMS5003;29067;35.492;-97.520;2024-03-29T02:13:52;7;5;
43479;PMS5003;29067;35.492;-97.520;2024-03-29T02:16:23;4;4;
43479;PMS5003;29067;35.492;-97.520;2024-03-29T02:18:51;5;4;
43479;PMS5003;29067;35.492;-97.520;2024-03-29T02:21:21;4;4;
43479;PMS5003;29067;35.492;-97.520;2024-03-29T02:23:56;3;3;
43479;PMS5003;29067;35.492;-97.520;2024-03-29T02:26:32;4;4;
43479;PMS5003;29067;35.492;-97.520;2024-03-29T02:29:00;3;3;
43479;PMS5003;29067;35.492;-97.520;2024-03-29T02:31:29;3;3;
43479;PMS5003;29067;35.492;-97.520;2024-03-29T02:33:57;3;3;
43479;PMS5003;29067;35.492;-97.520;2024-03-29T02:36:25;3;3;
43479;PMS5003;29067;35.492;-97.520;2024-03-29T02:38:53;4;4;
43479;PMS5003;29067;35.492;-97.520;2024-03-29T02:41:22;5;4;
43479;PMS5003;29067;35.492;-97.520;2024-03-29T02:43:51;3;3;
43479;PMS5003;29067;35.492;-97.520;2024-03-29T02:46:20;3;3;
43479;PMS5003;29067;35.492;-97.520;2024-03-29T02:48:49;5;4;
43479;PMS5003;29067;35.492;-97.520;2024-03-29T02:51:16;5;5;
43479;PMS5003;29067;35.492;-97.520;2024-03-29T02:53:45;4;4;
43479;PMS5003;29067;35.492;-97.520;2024-03-29T02:56:14;4;3;
43479;PMS5003;29067;35.492;-97.520;2024-03-29T02:58:41;4;4;
43479;PMS5003;29067;35.492;-97.520;2024-03-29T03:01:09;4;4;
43479;PMS5003;29067;35.492;-97.520;2024-03-29T03:03:38;5;4;
43479;PMS5003;29067;35.492;-97.520;2024-03-29T03:06:05;3;3;
43479;PMS5003;29067;35.492;-97.520;2024-03-29T03:08:34;5;4;
43479;PMS5003;29067;35.492;-97.520;2024-03-29T03:11:04;5;5;
43479;PMS5003;29067;35.492;-97.520;2024-03-29T03:13:32;5;5;
43479;PMS5003;29067;35.492;-97.520;2024-03-29T03:16:00;4;4;
43479;PMS5003;29067;35.492;-97.520;2024-03-29T03:18:27;6;5;
43479;PMS5003;29067;35.492;-97.520;2024-03-29T03:20:56;3;3;
43479;PMS5003;29067;35.492;-97.520;2024-03-29T03:23:24;3;3;
43479;PMS5003;29067;35.492;-97.520;2024-03-29T03:25:54;5;5;
43479;PMS5003;29067;35.492;-97.520;2024-03-29T03:28:23;5;5;
43479;PMS5003;29067;35.492;-97.520;2024-03-29T03:30:52;4;4;
43479;PMS5003;29067;35.492;-97.520;2024-03-29T03:33:20;7;5;
43479;PMS5003;29067;35.492;-97.520;2024-03-29T03:35:49;3;3;
43479;PMS5003;29067;35.492;-97.520;2024-03-29T03:38:16;4;4;
43479;PMS5003;29067;35.492;-97.520;2024-03-29T03:40:44;4;4;
43479;PMS5003;29067;35.492;-97.520;2024-03-29T03:43:12;4;4;
43479;PMS5003;29067;35.492;-97.520;2024-03-29T03:45:40;4;3;
43479;PMS5003;29067;35.492;-97.520;2024-03-29T03:48:09;5;5;
43479;PMS5003;29067;35.492;-97.520;2024-03-29T03:50:38;3;3;
43479;PMS5003;29067;35.492;-97.520;2024-03-29T03:53:05;4;4;
43479;PMS5003;29067;35.492;-97.520;2024-03-29T03:55:35;3;3;
43479;PMS5003;29067;35.492;-97.520;2024-03-29T03:58:04;4;4;
43479;PMS5003;29067;35.492;-97.520;2024-03-29T04:00:32;5;5;
43479;PMS5003;29067;35.492;-97.520;2024-03-29T04:03:01;4;4;
43479;PMS5003;29067;35.492;-97.520;2024-03-29T04:05:29;4;4;
43479;PMS5003;29067;35.492;-97.520;2024-03-29T04:07:56;4;4;
43479;PMS5003;29067;35.492;-97.520;2024-03-29T04:10:24;4;4;
43479;PMS5003;29067;35.492;-97.520;2024-03-29T04:12:52;4;4;
43479;PMS5003;29067;35.492;-97.520;2024-03-29T04:15:20;5;4;
43479;PMS5003;29067;35.492;-97.520;2024-03-29T04:17:48;4;3;
43479;PMS5003;29067;35.492;-97.520;2024-03-29T04:20:16;5;4;
43479;PMS5003;29067;35.492;-97.520;2024-03-29T04:22:44;5;4;
43479;PMS5003;29067;35.492;-97.520;2024-03-29T04:25:11;4;3;
43479;PMS5003;29067;35.492;-97.520;2024-03-29T04:27:39;4;4;
43479;PMS5003;29067;35.492;-97.520;2024-03-29T04:30:07;5;4;
43479;PMS5003;29067;35.492;-97.520;2024-03-29T04:32:36;5;5;
43479;PMS5003;29067;35.492;-97.520;2024-03-29T04:35:04;3;3;
43479;PMS5003;29067;35.492;-97.520;2024-03-29T04:37:32;5;4;
43479;PMS5003;29067;35.492;-97.520;2024-03-29T04:40:00;4;4;
43479;PMS5003;29067;35.492;-97.520;2024-03-29T04:42:27;3;3;
43479;PMS5003;29067;35.492;-97.520;2024-03-29T04:44:55;4;4;
43479;PMS5003;29067;35.492;-97.520;2024-03-29T04:47:23;4;4;
43479;PMS5003;29067;35.492;-97.520;2024-03-29T04:49:51;5;4;
43479;PMS5003;29067;35.492;-97.520;2024-03-29T04:52:19;3;3;
43479;PMS5003;29067;35.492;-97.520;2024-03-29T04:54:46;5;3;
43479;PMS5003;29067;35.492;-97.520;2024-03-29T04:57:14;5;3;
43479;PMS5003;29067;35.492;-97.520;2024-03-29T04:59:42;4;3;
43479;PMS5003;29067;35.492;-97.520;2024-03-29T05:02:10;3;3;
43479;PMS5003;29067;35.492;-97.520;2024-03-29T05:04:37;4;4;
43479;PMS5003;29067;35.492;-97.520;2024-03-29T05:07:05;3;3;
43479;PMS5003;29067;35.492;-97.520;2024-03-29T05:09:33;3;3;
43479;PMS5003;29067;35.492;-97.520;2024-03-29T05:12:01;5;4;
43479;PMS5003;29067;35.492;-97.520;2024-03-29T05:14:29;3;3;
43479;PMS5003;29067;35.492;-97.520;2024-03-29T05:16:57;4;4;
43479;PMS5003;29067;35.492;-97.520;2024-03-29T05:19:25;5;5;
43479;PMS5003;29067;35.492;-97.520;2024-03-29T05:21:53;3;3;
43479;PMS5003;29067;35.492;-97.520;2024-03-29T05:24:20;4;4;
43479;PMS5003;29067;35.492;-97.520;2024-03-29T05:26:48;3;3;
43479;PMS5003;29067;35.492;-97.520;2024-03-29T05:29:16;4;4;
43479;PMS5003;29067;35.492;-97.520;2024-03-29T05:31:44;4;4;
43479;PMS5003;29067;35.492;-97.520;2024-03-29T05:34:11;4;3;
43479;PMS5003;29067;35.492;-97.520;2024-03-29T05:36:39;3;3;
43479;PMS5003;29067;35.492;-97.520;2024-03-29T05:39:07;3;3;
43479;PMS5003;29067;35.492;-97.520;2024-03-29T05:41:35;3;3;
43479;PMS5003;29067;35.492;-97.520;2024-03-29T05:44:03;4;4;
43479;PMS5003;29067;35.492;-97.520;2024-03-29T05:46:31;4;4;
43479;PMS5003;29067;35.492;-97.520;2024-03-29T05:48:59;4;4;
43479;PMS5003;29067;35.492;-97.520;2024-03-29T05:51:27;4;4;
43479;PMS5003;29067;35.492;-97.520;2024-03-29T05:53:54;4;3;
43479;PMS5003;29067;35.492;-97.520;2024-03-29T05:56:22;3;3;
43479;PMS5003;29067;35.492;-97.520;2024-03-29T05:58:50;4;4;
43479;PMS5003;29067;35.492;-97.520;2024-03-29T06:01:18;4;3;
43479;PMS5003;29067;35.492;-97.520;2024-03-29T06:03:45;4;3;
43479;PMS5003;29067;35.492;-97.520;2024-03-29T06:06:13;3;3;
43479;PMS5003;29067;35.492;-97.520;2024-03-29T06:08:41;4;4;
43479;PMS5003;29067;35.492;-97.520;2024-03-29T06:11:09;3;3;
43479;PMS5003;29067;35.492;-97.520;2024-03-29T06:13:36;4;4;
43479;PMS5003;29067;35.492;-97.520;2024-03-29T06:16:04;3;2;
43479;PMS5003;29067;35.492;-97.520;2024-03-29T06:18:33;4;4;
43479;PMS5003;29067;35.492;-97.520;2024-03-29T06:21:01;3;3;
43479;PMS5003;29067;35.492;-97.520;2024-03-29T06:23:29;3;3;
43479;PMS5003;29067;35.492;-97.520;2024-03-29T06:25:57;4;4;
43479;PMS5003;29067;35.492;-97.520;2024-03-29T06:28:24;3;3;
43479;PMS5003;29067;35.492;-97.520;2024-03-29T06:30:52;4;4;
43479;PMS5003;29067;35.492;-97.520;2024-03-29T06:33:20;3;3;
43479;PMS5003;29067;35.492;-97.520;2024-03-29T06:35:52;7;5;
43479;PMS5003;29067;35.492;-97.520;2024-03-29T06:38:21;5;4;
43479;PMS5003;29067;35.492;-97.520;2024-03-29T06:40:48;4;4;
43479;PMS5003;29067;35.492;-97.520;2024-03-29T06:43:16;5;4;
43479;PMS5003;29067;35.492;-97.520;2024-03-29T06:45:44;5;4;
43479;PMS5003;29067;35.492;-97.520;2024-03-29T06:48:12;4;3;
43479;PMS5003;29067;35.492;-97.520;2024-03-29T06:50:40;4;4;
43479;PMS5003;29067;35.492;-97.520;2024-03-29T06:53:08;4;3;
43479;PMS5003;29067;35.492;-97.520;2024-03-29T06:55:36;3;3;
43479;PMS5003;29067;35.492;-97.520;2024-03-29T06:58:04;4;4;
43479;PMS5003;29067;35.492;-97.520;2024-03-29T07:00:31;3;3;
43479;PMS5003;29067;35.492;-97.520;2024-03-29T07:03:00;4;3;
43479;PMS5003;29067;35.492;-97.520;2024-03-29T07:05:28;4;4;
43479;PMS5003;29067;35.492;-97.520;2024-03-29T07:07:55;4;4;
43479;PMS5003;29067;35.492;-97.520;2024-03-29T07:10:23;3;3;
43479;PMS5003;29067;35.492;-97.520;2024-03-29T07:12:51;3;3;
43479;PMS5003;29067;35.492;-97.520;2024-03-29T07:15:19;3;3;
43479;PMS5003;29067;35.492;-97.520;2024-03-29T07:17:47;4;3;
43479;PMS5003;29067;35.492;-97.520;2024-03-29T07:20:15;3;3;
43479;PMS5003;29067;35.492;-97.520;2024-03-29T07:22:44;5;4;
43479;PMS5003;29067;35.492;-97.520;2024-03-29T07:25:12;5;4;
43479;PMS5003;29067;35.492;-97.520;2024-03-29T07:27:39;3;3;
43479;PMS5003;29067;35.492;-97.520;2024-03-29T07:30:07;3;3;
43479;PMS5003;29067;35.492;-97.520;2024-03-29T07:32:36;3;3;
43479;PMS5003;29067;35.492;-97.520;2024-03-29T07:35:04;4;4;
43479;PMS5003;29067;35.492;-97.520;2024-03-29T07:37:32;3;3;
43479;PMS5003;29067;35.492;-97.520;2024-03-29T07:40:00;3;3;
43479;PMS5003;29067;35.492;-97.520;2024-03-29T07:42:28;4;4;
43479;PMS5003;29067;35.492;-97.520;2024-03-29T07:44:55;3;3;
43479;PMS5003;29067;35.492;-97.520;2024-03-29T07:47:24;4;4;
43479;PMS5003;29067;35.492;-97.520;2024-03-29T07:49:52;4;4;
43479;PMS5003;29067;35.492;-97.520;2024-03-29T07:52:20;3;3;
43479;PMS5003;29067;35.492;-97.520;2024-03-29T07:54:47;4;4;
43479;PMS5003;29067;35.492;-97.520;2024-03-29T07:57:15;3;3;
43479;PMS5003;29067;35.492;-97.520;2024-03-29T07:59:43;3;3;
43479;PMS5003;29067;35.492;-97.520;2024-03-29T08:02:11;5;4;
43479;PMS5003;29067;35.492;-97.520;2024-03-29T08:04:38;4;4;
43479;PMS5003;29067;35.492;-97.520;2024-03-29T08:07:06;4;4;
43479;PMS5003;29067;35.492;-97.520;2024-03-29T08:09:34;4;3;
43479;PMS5003;29067;35.492;-97.520;2024-03-29T08:12:02;2;2;
43479;PMS5003;29067;35.492;-97.520;2024-03-29T08:14:30;4;4;
43479;PMS5003;29067;35.492;-97.520;2024-03-29T08:16:58;4;4;
43479;PMS5003;29067;35.492;-97.520;2024-03-29T08:19:26;4;4;
43479;PMS5003;29067;35.492;-97.520;2024-03-29T08:21:54;4;3;
43479;PMS5003;29067;35.492;-97.520;2024-03-29T08:24:22;3;3;
43479;PMS5003;29067;35.492;-97.520;2024-03-29T08:26:50;3;3;
43479;PMS5003;29067;35.492;-97.520;2024-03-29T08:29:18;4;3;
43479;PMS5003;29067;35.492;-97.520;2024-03-29T08:31:45;3;3;
43479;PMS5003;29067;35.492;-97.520;2024-03-29T08:34:13;4;4;
43479;PMS5003;29067;35.492;-97.520;2024-03-29T08:36:41;4;3;
43479;PMS5003;29067;35.492;-97.520;2024-03-29T08:39:09;5;5;
43479;PMS5003;29067;35.492;-97.520;2024-03-29T08:41:37;4;4;
43479;PMS5003;29067;35.492;-97.520;2024-03-29T08:44:04;3;3;
43479;PMS5003;29067;35.492;-97.520;2024-03-29T08:46:34;4;4;
43479;PMS5003;29067;35.492;-97.520;2024-03-29T08:49:02;2;2;
43479;PMS5003;29067;35.492;-97.520;2024-03-29T08:51:29;5;5;
43479;PMS5003;29067;35.492;-97.520;2024-03-29T08:53:57;3;3;
43479;PMS5003;29067;35.492;-97.520;2024-03-29T08:56:25;3;3;
43479;PMS5003;29067;35.492;-97.520;2024-03-29T08:58:53;3;3;
43479;PMS5003;29067;35.492;-97.520;2024-03-29T09:01:20;3;3;
43479;PMS5003;29067;35.492;-97.520;2024-03-29T09:03:48;4;4;
43479;PMS5003;29067;35.492;-97.520;2024-03-29T09:06:16;4;3;
43479;PMS5003;29067;35.492;-97.520;2024-03-29T09:08:44;4;3;
43479;PMS5003;29067;35.492;-97.520;2024-03-29T09:11:11;3;3;
43479;PMS5003;29067;35.492;-97.520;2024-03-29T09:13:39;2;2;
43479;PMS5003;29067;35.492;-97.520;2024-03-29T09:16:07;4;4;
43479;PMS5003;29067;35.492;-97.520;2024-03-29T09:18:35;3;3;
43479;PMS5003;29067;35.492;-97.520;2024-03-29T09:21:03;5;4;
43479;PMS5003;29067;35.492;-97.520;2024-03-29T09:23:31;4;4;
43479;PMS5003;29067;35.492;-97.520;2024-03-29T09:25:59;4;4;
43479;PMS5003;29067;35.492;-97.520;2024-03-29T09:28:30;4;4;
43479;PMS5003;29067;35.492;-97.520;2024-03-29T09:30:58;4;4;
43479;PMS5003;29067;35.492;-97.520;2024-03-29T09:33:27;5;4;
43479;PMS5003;29067;35.492;-97.520;2024-03-29T09:35:54;4;4;
43479;PMS5003;29067;35.492;-97.520;2024-03-29T09:38:22;6;5;
43479;PMS5003;29067;35.492;-97.520;2024-03-29T09:40:54;5;5;
43479;PMS5003;29067;35.492;-97.520;2024-03-29T09:43:30;6;5;
43479;PMS5003;29067;35.492;-97.520;2024-03-29T09:45:58;7;7;
43479;PMS5003;29067;35.492;-97.520;2024-03-29T09:48:27;4;4;
43479;PMS5003;29067;35.492;-97.520;2024-03-29T09:50:56;7;7;
43479;PMS5003;29067;35.492;-97.520;2024-03-29T09:53:25;12;12;
43479;PMS5003;29067;35.492;-97.520;2024-03-29T09:55:53;12;10;
43479;PMS5003;29067;35.492;-97.520;2024-03-29T09:58:21;12;12;
43479;PMS5003;29067;35.492;-97.520;2024-03-29T10:00:49;18;18;
43479;PMS5003;29067;35.492;-97.520;2024-03-29T10:03:16;24;24;
43479;PMS5003;29067;35.492;-97.520;2024-03-29T10:05:44;26;26;
43479;PMS5003;29067;35.492;-97.520;2024-03-29T10:08:13;28;28;
43479;PMS5003;29067;35.492;-97.520;2024-03-29T10:10:41;32;31;
43479;PMS5003;29067;35.492;-97.520;2024-03-29T10:13:09;37;37;
43479;PMS5003;29067;35.492;-97.520;2024-03-29T10:15:37;8;7;
43479;PMS5003;29067;35.492;-97.520;2024-03-29T10:18:08;47;47;
43479;PMS5003;29067;35.492;-97.520;2024-03-29T10:20:36;75;75;
43479;PMS5003;29067;35.492;-97.520;2024-03-29T10:23:05;89;88;
43479;PMS5003;29067;35.492;-97.520;2024-03-29T10:25:32;100;100;
43479;PMS5003;29067;35.492;-97.520;2024-03-29T10:28:01;40;40;
43479;PMS5003;29067;35.492;-97.520;2024-03-29T10:30:29;98;98;
43479;PMS5003;29067;35.492;-97.520;2024-03-29T10:32:57;122;122;
43479;PMS5003;29067;35.492;-97.520;2024-03-29T10:35:25;97;97;
43479;PMS5003;29067;35.492;-97.520;2024-03-29T10:37:53;133;133;
43479;PMS5003;29067;35.492;-97.520;2024-03-29T10:40:22;90;89;
43479;PMS5003;29067;35.492;-97.520;2024-03-29T10:42:51;53;53;
43479;PMS5003;29067;35.492;-97.520;2024-03-29T10:45:20;130;130;
43479;PMS5003;29067;35.492;-97.520;2024-03-29T10:47:49;59;59;
43479;PMS5003;29067;35.492;-97.520;2024-03-29T10:50:19;17;17;
43479;PMS5003;29067;35.492;-97.520;2024-03-29T10:52:48;84;84;
43479;PMS5003;29067;35.492;-97.520;2024-03-29T10:55:17;62;61;
43479;PMS5003;29067;35.492;-97.520;2024-03-29T10:57:45;94;92;
43479;PMS5003;29067;35.492;-97.520;2024-03-29T11:00:19;95;94;
43479;PMS5003;29067;35.492;-97.520;2024-03-29T11:02:48;40;39;
43479;PMS5003;29067;35.492;-97.520;2024-03-29T11:05:22;37;37;
43479;PMS5003;29067;35.492;-97.520;2024-03-29T11:07:53;16;16;
43479;PMS5003;29067;35.492;-97.520;2024-03-29T11:10:23;50;49;
43479;PMS5003;29067;35.492;-97.520;2024-03-29T11:13:09;38;38;
43479;PMS5003;29067;35.492;-97.520;2024-03-29T11:15:44;22;21;
43479;PMS5003;29067;35.492;-97.520;2024-03-29T11:18:13;15;15;
43479;PMS5003;29067;35.492;-97.520;2024-03-29T11:20:41;6;6;
43479;PMS5003;29067;35.492;-97.520;2024-03-29T11:23:12;7;7;
43479;PMS5003;29067;35.492;-97.520;2024-03-29T11:25:43;6;6;
43479;PMS5003;29067;35.492;-97.520;2024-03-29T11:28:12;9;8;
43479;PMS5003;29067;35.492;-97.520;2024-03-29T11:30:42;8;8;
43479;PMS5003;29067;35.492;-97.520;2024-03-29T11:33:28;7;6;
43479;PMS5003;29067;35.492;-97.520;2024-03-29T11:35:58;8;7;
43479;PMS5003;29067;35.492;-97.520;2024-03-29T11:38:31;9;9;
43479;PMS5003;29067;35.492;-97.520;2024-03-29T11:41:02;8;7;
43479;PMS5003;29067;35.492;-97.520;2024-03-29T11:43:31;7;7;
43479;PMS5003;29067;35.492;-97.520;2024-03-29T11:46:00;8;8;
43479;PMS5003;29067;35.492;-97.520;2024-03-29T11:48:29;8;8;
43479;PMS5003;29067;35.492;-97.520;2024-03-29T11:50:57;15;15;
43479;PMS5003;29067;35.492;-97.520;2024-03-29T11:53:26;17;17;
43479;PMS5003;29067;35.492;-97.520;2024-03-29T11:55:54;13;13;
43479;PMS5003;29067;35.492;-97.520;2024-03-29T11:58:23;18;17;
43479;PMS5003;29067;35.492;-97.520;2024-03-29T12:19:25;9;9;
43479;PMS5003;29067;35.492;-97.520;2024-03-29T12:21:52;16;15;
43479;PMS5003;29067;35.492;-97.520;2024-03-29T12:24:21;7;7;
43479;PMS5003;29067;35.492;-97.520;2024-03-29T12:26:49;6;6;
43479;PMS5003;29067;35.492;-97.520;2024-03-29T12:29:17;7;7;
43479;PMS5003;29067;35.492;-97.520;2024-03-29T12:31:45;6;6;
43479;PMS5003;29067;35.492;-97.520;2024-03-29T12:34:23;7;6;
43479;PMS5003;29067;35.492;-97.520;2024-03-29T12:36:51;6;6;
43479;PMS5003;29067;35.492;-97.520;2024-03-29T12:39:19;7;6;
43479;PMS5003;29067;35.492;-97.520;2024-03-29T12:41:48;5;5;
43479;PMS5003;29067;35.492;-97.520;2024-03-29T12:44:16;7;7;
43479;PMS5003;29067;35.492;-97.520;2024-03-29T12:46:44;5;5;
43479;PMS5003;29067;35.492;-97.520;2024-03-29T12:49:12;7;7;
43479;PMS5003;29067;35.492;-97.520;2024-03-29T12:51:40;7;6;
43479;PMS5003;29067;35.492;-97.520;2024-03-29T12:54:12;6;6;
43479;PMS5003;29067;35.492;-97.520;2024-03-29T12:56:40;7;5;
43479;PMS5003;29067;35.492;-97.520;2024-03-29T12:59:08;5;5;
43479;PMS5003;29067;35.492;-97.520;2024-03-29T13:01:36;5;5;
43479;PMS5003;29067;35.492;-97.520;2024-03-29T13:04:04;7;7;
43479;PMS5003;29067;35.492;-97.520;2024-03-29T13:06:31;8;6;
43479;PMS5003;29067;35.492;-97.520;2024-03-29T13:09:00;6;6;
43479;PMS5003;29067;35.492;-97.520;2024-03-29T13:11:28;6;5;
43479;PMS5003;29067;35.492;-97.520;2024-03-29T13:13:56;6;5;
43479;PMS5003;29067;35.492;-97.520;2024-03-29T13:16:23;6;6;
43479;PMS5003;29067;35.492;-97.520;2024-03-29T13:18:51;6;6;
43479;PMS5003;29067;35.492;-97.520;2024-03-29T13:21:19;6;6;
43479;PMS5003;29067;35.492;-97.520;2024-03-29T13:23:47;6;5;
43479;PMS5003;29067;35.492;-97.520;2024-03-29T13:26:15;15;13;
43479;PMS5003;29067;35.492;-97.520;2024-03-29T13:28:42;22;22;
43479;PMS5003;29067;35.492;-97.520;2024-03-29T13:31:10;30;30;
43479;PMS5003;29067;35.492;-97.520;2024-03-29T13:33:38;15;15;
43479;PMS5003;29067;35.492;-97.520;2024-03-29T13:36:06;13;13;
43479;PMS5003;29067;35.492;-97.520;2024-03-29T13:38:35;15;15;
43479;PMS5003;29067;35.492;-97.520;2024-03-29T13:41:02;12;12;
43479;PMS5003;29067;35.492;-97.520;2024-03-29T13:43:31;19;19;
43479;PMS5003;29067;35.492;-97.520;2024-03-29T13:45:59;21;21;
43479;PMS5003;29067;35.492;-97.520;2024-03-29T13:48:27;15;15;
43479;PMS5003;29067;35.492;-97.520;2024-03-29T13:50:54;8;7;
43479;PMS5003;29067;35.492;-97.520;2024-03-29T13:53:22;4;4;
43479;PMS5003;29067;35.492;-97.520;2024-03-29T13:55:50;6;6;
43479;PMS5003;29067;35.492;-97.520;2024-03-29T13:58:19;6;5;
43479;PMS5003;29067;35.492;-97.520;2024-03-29T14:00:46;4;4;
43479;PMS5003;29067;35.492;-97.520;2024-03-29T14:03:14;5;5;
43479;PMS5003;29067;35.492;-97.520;2024-03-29T14:05:42;4;4;
43479;PMS5003;29067;35.492;-97.520;2024-03-29T14:08:10;4;4;
43479;PMS5003;29067;35.492;-97.520;2024-03-29T14:10:37;4;4;
43479;PMS5003;29067;35.492;-97.520;2024-03-29T14:13:05;4;3;
43479;PMS5003;29067;35.492;-97.520;2024-03-29T14:15:33;4;4;
43479;PMS5003;29067;35.492;-97.520;2024-03-29T14:18:01;5;4;
43479;PMS5003;29067;35.492;-97.520;2024-03-29T14:20:29;6;6;
43479;PMS5003;29067;35.492;-97.520;2024-03-29T14:22:56;4;4;
43479;PMS5003;29067;35.492;-97.520;2024-03-29T14:25:24;4;4;
43479;PMS5003;29067;35.492;-97.520;2024-03-29T14:27:52;4;4;
43479;PMS5003;29067;35.492;-97.520;2024-03-29T14:30:20;5;4;
43479;PMS5003;29067;35.492;-97.520;2024-03-29T14:32:49;5;5;
43479;PMS5003;29067;35.492;-97.520;2024-03-29T14:35:19;3;3;
43479;PMS5003;29067;35.492;-97.520;2024-03-29T14:37:47;4;4;
43479;PMS5003;29067;35.492;-97.520;2024-03-29T14:40:15;4;4;
43479;PMS5003;29067;35.492;-97.520;2024-03-29T14:42:43;4;4;
43479;PMS5003;29067;35.492;-97.520;2024-03-29T14:45:10;4;4;
43479;PMS5003;29067;35.492;-97.520;2024-03-29T14:47:38;6;4;
43479;PMS5003;29067;35.492;-97.520;2024-03-29T14:50:07;3;3;
43479;PMS5003;29067;35.492;-97.520;2024-03-29T14:52:35;3;3;
43479;PMS5003;29067;35.492;-97.520;2024-03-29T14:55:03;5;5;
43479;PMS5003;29067;35.492;-97.520;2024-03-29T14:57:31;3;3;
43479;PMS5003;29067;35.492;-97.520;2024-03-29T14:59:59;4;3;
43479;PMS5003;29067;35.492;-97.520;2024-03-29T15:02:27;4;4;
43479;PMS5003;29067;35.492;-97.520;2024-03-29T15:04:54;5;5;
43479;PMS5003;29067;35.492;-97.520;2024-03-29T15:07:22;4;4;
43479;PMS5003;29067;35.492;-97.520;2024-03-29T15:09:50;4;4;
43479;PMS5003;29067;35.492;-97.520;2024-03-29T15:12:19;4;4;
43479;PMS5003;29067;35.492;-97.520;2024-03-29T15:14:47;4;4;
43479;PMS5003;29067;35.492;-97.520;2024-03-29T15:17:15;3;3;
43479;PMS5003;29067;35.492;-97.520;2024-03-29T15:19:45;2;2;
43479;PMS5003;29067;35.492;-97.520;2024-03-29T15:22:13;5;4;
43479;PMS5003;29067;35.492;-97.520;2024-03-29T15:24:40;4;3;
43479;PMS5003;29067;35.492;-97.520;2024-03-29T15:27:08;6;5;
43479;PMS5003;29067;35.492;-97.520;2024-03-29T15:29:36;3;3;
43479;PMS5003;29067;35.492;-97.520;2024-03-29T15:32:05;4;3;
43479;PMS5003;29067;35.492;-97.520;2024-03-29T15:34:32;4;4;
43479;PMS5003;29067;35.492;-97.520;2024-03-29T15:37:00;5;5;
43479;PMS5003;29067;35.492;-97.520;2024-03-29T15:39:28;4;4;
43479;PMS5003;29067;35.492;-97.520;2024-03-29T15:41:55;4;4;
43479;PMS5003;29067;35.492;-97.520;2024-03-29T15:44:23;5;4;
43479;PMS5003;29067;35.492;-97.520;2024-03-29T15:46:51;3;3;
43479;PMS5003;29067;35.492;-97.520;2024-03-29T15:49:18;4;4;
43479;PMS5003;29067;35.492;-97.520;2024-03-29T15:51:46;4;3;
43479;PMS5003;29067;35.492;-97.520;2024-03-29T15:54:14;4;4;
43479;PMS5003;29067;35.492;-97.520;2024-03-29T15:56:42;3;3;
43479;PMS5003;29067;35.492;-97.520;2024-03-29T15:59:09;2;2;
43479;PMS5003;29067;35.492;-97.520;2024-03-29T16:01:37;2;2;
43479;PMS5003;29067;35.492;-97.520;2024-03-29T16:04:05;3;3;
43479;PMS5003;29067;35.492;-97.520;2024-03-29T16:06:32;3;3;
43479;PMS5003;29067;35.492;-97.520;2024-03-29T16:09:00;3;3;
43479;PMS5003;29067;35.492;-97.520;2024-03-29T16:11:33;2;2;
43479;PMS5003;29067;35.492;-97.520;2024-03-29T16:14:03;1;1;
43479;PMS5003;29067;35.492;-97.520;2024-03-29T16:16:31;3;3;
43479;PMS5003;29067;35.492;-97.520;2024-03-29T16:19:00;3;2;
43479;PMS5003;29067;35.492;-97.520;2024-03-29T16:21:27;2;2;
43479;PMS5003;29067;35.492;-97.520;2024-03-29T16:23:55;1;1;
43479;PMS5003;29067;35.492;-97.520;2024-03-29T16:26:23;2;2;
43479;PMS5003;29067;35.492;-97.520;2024-03-29T16:28:51;2;2;
43479;PMS5003;29067;35.492;-97.520;2024-03-29T16:31:19;2;1;
43479;PMS5003;29067;35.492;-97.520;2024-03-29T16:33:47;1;1;
43479;PMS5003;29067;35.492;-97.520;2024-03-29T16:36:15;1;1;
43479;PMS5003;29067;35.492;-97.520;2024-03-29T16:38:43;4;3;